Terminal Aerodrome Forecast
Issued by NWS Cleveland, OH

Home | Current Version | Previous Version | Graphics & Text | Print | Product List | Glossary Off
Versions: 1 2 3 4 5 6 7 8 9 10 11 12 13 14 15 16 17 18 19 20 21

497
FTUS41 KCLE 270540
TAFTOL
TAF
KTOL 270540Z 2706/2806 23005KT P6SM SCT008 BKN040
     FM271000 24005KT 5SM BR OVC008
     FM271500 24005KT P6SM BKN015
     FM271700 24007KT P6SM BKN050
     FM272300 VRB03KT P6SM OVC100
     FM280400 04003KT 5SM -RA BR OVC012=

USA.gov is the U.S. government's official web portal to all federal, state and local government web resources and services.